Time;durP1;ratioP1;P1;durP2;ratioP2;P2;SDS_P1;SDS_P2;PMS_P1;PMS_P2;Temp;Humidity;BMP_temperature;BMP_pressure;BME280_temperature;BME280_humidity;BME280_pressure;Samples;Min_cycle;Max_cycle;Signal;HPM_P1;HPM_P2
2023/06/05 00:00:09;;;;;;;12.63;2.88;;;18.60;56.80;;;18.12;47.50;101092.44;5026967;28;20045;-78
2023/06/05 00:02:39;;;;;;;6.35;2.60;;;18.60;57.30;;;18.12;47.35;101097.84;5024583;28;20053;-78
2023/06/05 00:05:08;;;;;;;6.47;2.70;;;18.60;57.20;;;18.08;47.44;101097.50;5026735;28;20060;-78
2023/06/05 00:07:37;;;;;;;12.52;3.30;;;18.50;57.30;;;18.07;47.66;101095.06;5030346;28;20052;-78
2023/06/05 00:10:06;;;;;;;8.50;3.35;;;18.60;57.40;;;18.07;47.50;101103.97;5035854;28;20045;-78
2023/06/05 00:12:33;;;;;;;10.63;3.35;;;18.60;57.30;;;18.08;47.54;101107.50;5023782;28;20100;-78
2023/06/05 00:15:01;;;;;;;10.45;3.05;;;18.50;57.60;;;18.05;47.42;101102.56;5027582;28;20141;-78
2023/06/05 00:17:31;;;;;;;9.07;3.40;;;18.50;57.10;;;18.03;47.65;101100.13;5017709;28;20128;-78
2023/06/05 00:19:59;;;;;;;6.88;2.80;;;18.50;57.60;;;18.00;47.99;101108.72;5005091;28;20426;-78
2023/06/05 00:22:27;;;;;;;5.03;2.67;;;18.50;58.10;;;17.99;47.98;101099.78;5025708;28;20061;-78
2023/06/05 00:24:55;;;;;;;6.88;3.30;;;18.50;57.80;;;17.97;48.01;101111.91;5027526;28;20049;-78
2023/06/05 00:27:22;;;;;;;8.45;2.90;;;18.40;57.90;;;17.94;48.22;101107.00;5018037;28;20537;-78
2023/06/05 00:29:50;;;;;;;8.40;2.88;;;18.40;58.00;;;17.92;48.41;101099.16;5038013;28;20125;-78
2023/06/05 00:32:17;;;;;;;7.82;2.90;;;18.40;58.40;;;17.87;48.55;101095.56;5027461;28;20072;-78
2023/06/05 00:34:46;;;;;;;6.82;2.85;;;18.40;58.80;;;17.83;48.72;101097.91;5027160;28;20041;-78
2023/06/05 00:37:14;;;;;;;6.65;2.67;;;18.40;58.70;;;17.83;48.46;101110.59;5025461;28;20076;-78
2023/06/05 00:39:41;;;;;;;10.68;2.85;;;18.30;58.90;;;17.80;48.66;101101.09;5023686;28;20056;-78
2023/06/05 00:42:09;;;;;;;10.02;2.83;;;18.30;59.10;;;17.75;48.80;101104.50;5033441;28;20084;-78
2023/06/05 00:44:36;;;;;;;6.45;2.90;;;18.30;59.30;;;17.72;49.02;101104.16;5008652;28;20103;-78
2023/06/05 00:47:05;;;;;;;6.10;2.78;;;18.30;59.70;;;17.70;49.00;101103.56;5011733;28;20131;-78
2023/06/05 00:49:33;;;;;;;8.90;3.08;;;18.20;59.50;;;17.64;49.41;101110.78;5027901;28;20557;-78
2023/06/05 00:52:04;;;;;;;6.22;2.60;;;18.10;60.10;;;17.59;49.49;101099.06;5030325;28;20128;-78
2023/06/05 00:54:32;;;;;;;8.90;3.08;;;18.10;60.20;;;17.56;49.40;101103.06;5007709;28;20047;-78
2023/06/05 00:57:00;;;;;;;16.50;3.35;;;18.10;60.00;;;17.56;49.54;101107.63;5010002;28;20119;-78
2023/06/05 00:59:28;;;;;;;5.95;3.30;;;18.00;60.40;;;17.51;49.50;101100.25;5034712;28;20454;-78
2023/06/05 01:01:55;;;;;;;6.30;2.90;;;18.00;60.20;;;17.49;49.45;101100.53;5007498;28;20072;-78
2023/06/05 01:04:24;;;;;;;6.90;2.90;;;18.00;60.30;;;17.46;49.96;101105.56;5010423;28;20045;-78
2023/06/05 01:06:53;;;;;;;6.50;3.30;;;17.90;60.90;;;17.41;50.00;101103.59;5040740;28;20055;-78
2023/06/05 01:09:23;;;;;;;8.90;2.93;;;17.90;60.90;;;17.38;50.21;101104.09;5029179;28;20042;-78
2023/06/05 01:12:02;;;;;;;5.85;3.00;;;17.90;61.40;;;17.34;50.10;101102.94;5008449;28;20164;-78
2023/06/05 01:14:32;;;;;;;10.45;3.25;;;17.80;61.10;;;17.30;50.33;101096.38;5031099;28;20056;-78
2023/06/05 01:17:03;;;;;;;8.90;3.13;;;17.80;61.70;;;17.26;50.67;101089.81;5033807;28;20048;-78
2023/06/05 01:19:32;;;;;;;6.10;3.13;;;17.70;62.00;;;17.22;50.69;101099.44;5011032;28;20501;-78
2023/06/05 01:22:00;;;;;;;7.97;3.40;;;17.70;62.00;;;17.21;50.45;101097.81;5012256;28;20041;-78
2023/06/05 01:24:29;;;;;;;5.85;3.10;;;17.70;61.60;;;17.18;50.48;101101.00;5021070;28;20141;-78
2023/06/05 01:27:10;;;;;;;7.80;3.08;;;17.60;61.80;;;17.14;50.61;101097.16;5021411;28;20136;-78
2023/06/05 01:29:52;;;;;;;10.30;3.35;;;17.60;62.20;;;17.10;50.88;101102.19;5024092;28;20449;-78
2023/06/05 01:32:26;;;;;;;13.30;3.15;;;17.50;62.30;;;17.08;50.69;101087.28;5013729;28;20165;-78
2023/06/05 01:34:58;;;;;;;9.25;3.30;;;17.50;62.60;;;17.02;50.67;101089.06;5035834;28;20068;-78
2023/06/05 01:37:28;;;;;;;10.82;3.22;;;17.50;62.40;;;17.01;50.83;101083.94;5028937;28;20037;-78
2023/06/05 01:39:58;;;;;;;8.32;3.25;;;17.40;62.20;;;16.99;50.56;101092.25;5029581;28;20068;-78
2023/06/05 01:42:27;;;;;;;6.38;3.30;;;17.40;62.10;;;16.99;50.49;101090.38;5013901;28;20053;-78
2023/06/05 01:44:54;;;;;;;9.63;3.75;;;17.40;62.20;;;16.99;50.58;101090.38;5024988;28;20065;-78
2023/06/05 01:47:22;;;;;;;8.93;2.60;;;17.50;62.00;;;16.97;50.64;101091.66;5033507;28;20118;-78
2023/06/05 01:49:49;;;;;;;10.68;3.05;;;17.40;62.00;;;16.96;50.81;101090.84;5029400;28;20041;-78
2023/06/05 01:52:17;;;;;;;11.18;3.60;;;17.40;62.20;;;16.94;50.63;101090.28;5037129;28;20573;-78
2023/06/05 01:54:46;;;;;;;25.90;3.75;;;17.40;62.00;;;16.93;50.77;101083.25;5014073;28;20119;-78
2023/06/05 01:57:14;;;;;;;8.00;3.20;;;17.40;62.30;;;16.92;50.79;101084.28;5012499;28;20498;-78
2023/06/05 01:59:43;;;;;;;8.07;3.75;;;17.40;62.40;;;16.88;51.19;101077.75;5006131;28;20115;-78
2023/06/05 02:02:11;;;;;;;8.63;3.28;;;17.40;62.70;;;16.86;51.14;101081.75;5028285;28;20144;-78
2023/06/05 02:04:38;;;;;;;10.65;3.78;;;17.30;62.40;;;16.82;50.90;101075.19;5013356;28;20081;-78
2023/06/05 02:07:07;;;;;;;7.85;3.08;;;17.30;62.60;;;16.79;51.00;101079.19;5011680;28;20103;-78
2023/06/05 02:09:34;;;;;;;8.05;3.00;;;17.30;62.70;;;16.78;50.74;101077.53;5026316;28;20279;-78
2023/06/05 02:12:03;;;;;;;7.40;2.88;;;17.20;62.50;;;16.76;51.06;101070.75;5028772;28;20128;-78
2023/06/05 02:14:35;;;;;;;8.38;3.42;;;17.20;62.60;;;16.76;50.87;101078.84;5012163;28;20490;-78
2023/06/05 02:17:06;;;;;;;7.25;3.15;;;17.20;62.50;;;16.72;50.80;101075.78;5013184;28;20058;-78
2023/06/05 02:19:33;;;;;;;9.10;3.00;;;17.20;62.60;;;16.69;51.03;101068.19;5011365;28;20041;-78
2023/06/05 02:22:08;;;;;;;7.53;3.28;;;17.20;62.60;;;16.68;51.09;101070.03;5027849;28;20056;-78
2023/06/05 02:24:36;;;;;;;7.47;2.50;;;17.20;62.60;;;16.65;51.00;101067.81;5014882;28;20049;-78
2023/06/05 02:27:03;;;;;;;7.63;3.10;;;17.20;62.60;;;16.65;50.84;101067.00;5025569;28;20049;-78
2023/06/05 02:29:32;;;;;;;8.48;3.28;;;17.10;62.50;;;16.61;51.22;101065.84;5011107;28;20406;-78
2023/06/05 02:31:59;;;;;;;8.57;3.35;;;17.10;63.00;;;16.58;51.14;101067.09;5009692;28;20049;-78
2023/06/05 02:34:28;;;;;;;6.07;3.00;;;17.10;62.80;;;16.58;51.37;101060.91;5012688;28;20074;-78
2023/06/05 02:36:55;;;;;;;7.22;3.40;;;17.10;62.80;;;16.56;51.27;101066.53;5019379;28;20135;-78
2023/06/05 02:39:22;;;;;;;10.55;3.42;;;17.00;62.80;;;16.53;51.52;101058.91;5028968;28;20049;-78
2023/06/05 02:41:50;;;;;;;7.90;3.30;;;17.00;63.30;;;16.51;51.33;101057.53;5017524;28;20073;-78
2023/06/05 02:44:20;;;;;;;8.65;3.50;;;17.00;63.20;;;16.45;51.36;101062.81;5013672;28;20612;-78
2023/06/05 02:46:52;;;;;;;7.45;3.50;;;16.90;63.20;;;16.41;51.58;101060.81;5010422;28;20045;-78
2023/06/05 02:49:20;;;;;;;8.70;3.33;;;16.90;63.70;;;16.34;51.66;101058.22;5011577;28;20053;-78
2023/06/05 02:51:51;;;;;;;7.50;3.50;;;16.80;63.80;;;16.34;51.75;101060.09;5012296;28;20061;-78
2023/06/05 02:54:23;;;;;;;8.88;3.78;;;16.80;63.70;;;16.33;51.67;101063.84;5013718;28;20073;-78
2023/06/05 02:56:50;;;;;;;9.98;3.58;;;16.80;63.70;;;16.29;51.77;101055.41;5009943;28;20132;-80
2023/06/05 02:59:17;;;;;;;8.65;3.78;;;16.80;63.70;;;16.27;51.71;101060.25;5013726;28;20053;-77
2023/06/05 03:01:47;;;;;;;9.20;3.42;;;16.80;63.90;;;16.23;51.84;101056.38;5023838;28;20037;-79
2023/06/05 03:04:20;;;;;;;6.22;3.35;;;16.70;63.80;;;16.20;52.05;101062.22;5031143;28;20525;-78
2023/06/05 03:07:03;;;;;;;9.18;3.30;;;16.70;64.00;;;16.18;51.82;101065.16;5001041;28;20153;-88
2023/06/05 03:09:31;;;;;;;10.83;3.60;;;16.70;64.00;;;16.14;52.11;101049.69;4990954;28;20054;-86
2023/06/05 03:11:59;;;;;;;8.57;4.03;;;16.60;64.30;;;16.09;52.07;101049.56;4984526;28;20048;-87
2023/06/05 03:14:30;;;;;;;13.02;4.18;;;16.60;64.00;;;16.10;51.90;101052.03;5006473;28;20100;-89
2023/06/05 03:16:59;;;;;;;10.52;3.60;;;16.60;63.90;;;16.11;51.93;101044.81;4988838;28;20165;-92
2023/06/05 03:19:28;;;;;;;7.05;3.50;;;16.60;63.90;;;16.06;51.82;101048.19;4991239;28;20046;-84
2023/06/05 03:21:59;;;;;;;7.20;3.60;;;16.60;64.00;;;16.01;51.97;101044.56;4991139;28;20046;-90
2023/06/05 03:24:27;;;;;;;9.25;4.25;;;16.50;64.20;;;16.00;51.91;101037.53;4992493;28;20054;-93
2023/06/05 03:27:00;;;;;;;7.57;3.67;;;16.50;64.00;;;15.98;51.94;101037.75;4989641;28;20050;-91
2023/06/05 03:29:28;;;;;;;7.35;3.80;;;16.50;64.10;;;15.98;52.04;101045.84;4992397;28;20112;-90
2023/06/05 03:31:55;;;;;;;7.55;3.67;;;16.50;64.20;;;15.95;52.01;101047.09;4989274;28;20073;-91
2023/06/05 03:34:25;;;;;;;8.48;4.00;;;16.40;64.10;;;15.94;51.92;101040.09;5003285;28;20565;-92
2023/06/05 03:36:58;;;;;;;8.00;4.20;;;16.50;64.20;;;15.93;52.13;101040.31;4981923;28;20049;-91
2023/06/05 03:39:26;;;;;;;8.00;3.80;;;16.40;64.10;;;15.94;52.08;101039.28;4989820;28;20054;-90
2023/06/05 03:41:54;;;;;;;9.85;4.07;;;16.40;64.20;;;15.92;52.16;101044.06;4989200;28;20597;-89
2023/06/05 03:44:29;;;;;;;6.20;3.60;;;16.40;64.20;;;15.90;51.94;101044.28;4989315;28;20140;-92
2023/06/05 03:46:56;;;;;;;9.43;3.85;;;16.40;64.20;;;15.90;52.20;101046.97;4989911;28;20050;-88
2023/06/05 03:49:25;;;;;;;9.93;4.35;;;16.40;64.10;;;15.88;52.40;101043.72;4991645;28;20556;-89
2023/06/05 03:51:53;;;;;;;7.72;3.78;;;16.40;64.40;;;15.88;52.15;101045.59;4988607;28;20044;-91
2023/06/05 03:54:25;;;;;;;7.28;3.85;;;16.40;64.40;;;15.89;52.27;101052.59;4991327;28;20065;-89
2023/06/05 03:56:54;;;;;;;8.32;4.00;;;16.40;64.60;;;15.85;52.17;101046.84;4991375;28;20050;-91
2023/06/05 03:59:22;;;;;;;10.07;4.15;;;16.30;64.40;;;15.81;52.11;101045.72;4990180;28;20046;-90
2023/06/05 04:01:54;;;;;;;9.40;4.22;;;16.30;64.40;;;15.81;52.40;101045.72;4992323;28;20046;-90
2023/06/05 04:04:22;;;;;;;8.75;3.75;;;16.30;64.60;;;15.80;52.18;101049.44;4990785;28;20112;-88
2023/06/05 04:06:49;;;;;;;8.23;4.22;;;16.30;64.60;;;15.81;52.23;101053.78;4987367;28;20137;-90
2023/06/05 04:09:17;;;;;;;7.65;4.07;;;16.30;64.50;;;15.81;52.48;101061.84;4998883;28;20138;-89
2023/06/05 04:11:47;;;;;;;10.60;4.13;;;16.30;64.60;;;15.79;52.31;101047.78;4990898;28;20049;-90
2023/06/05 04:14:14;;;;;;;8.85;4.10;;;16.30;64.80;;;15.79;52.47;101055.03;4991411;28;20052;-90
2023/06/05 04:16:42;;;;;;;9.20;4.20;;;16.30;65.10;;;15.76;52.39;101053.63;5002444;28;20072;-91
2023/06/05 04:19:13;;;;;;;9.23;4.65;;;16.20;64.80;;;15.76;52.60;101053.63;4990987;28;20042;-88
2023/06/05 04:21:43;;;;;;;8.00;4.18;;;16.20;65.10;;;15.73;52.38;101053.28;4990359;28;20046;-90
2023/06/05 04:24:12;;;;;;;8.70;4.30;;;16.20;64.80;;;15.72;52.37;101057.84;4987562;28;20049;-88
2023/06/05 04:26:43;;;;;;;7.80;4.25;;;16.20;64.90;;;15.76;52.69;101060.88;4991344;28;20068;-92
2023/06/05 04:29:15;;;;;;;10.40;4.50;;;16.20;65.10;;;15.76;52.65;101053.63;4987800;28;20049;-89
2023/06/05 04:31:44;;;;;;;9.07;4.57;;;16.20;65.20;;;15.78;52.79;101051.53;4985914;28;20156;-89
2023/06/05 04:34:12;;;;;;;9.38;4.07;;;16.20;65.20;;;15.84;52.57;101061.38;4991528;28;20053;-91
2023/06/05 04:36:41;;;;;;;8.77;4.55;;;16.30;65.40;;;15.92;52.46;101052.97;4989590;28;20041;-92
2023/06/05 04:39:14;;;;;;;11.50;4.80;;;16.40;65.10;;;16.00;52.50;101056.34;4988564;28;20418;-90
2023/06/05 04:41:44;;;;;;;11.35;4.45;;;16.40;65.00;;;16.08;52.08;101056.00;5000624;28;20403;-90
2023/06/05 04:44:16;;;;;;;7.72;4.28;;;16.50;64.80;;;16.18;52.14;101062.44;4992560;28;20570;-94
2023/06/05 04:46:45;;;;;;;8.60;4.90;;;16.60;64.70;;;16.29;52.04;101057.31;4994403;28;20065;-91
2023/06/05 04:49:14;;;;;;;9.25;5.00;;;16.70;64.60;;;16.37;52.22;101055.09;5013198;28;20034;-93
2023/06/05 04:51:44;;;;;;;10.07;5.03;;;16.80;64.80;;;16.47;51.49;101060.69;4989393;28;20039;-92
2023/06/05 04:54:12;;;;;;;9.70;4.57;;;16.90;64.10;;;16.57;51.27;101059.28;5013672;28;20045;-91
2023/06/05 04:56:40;;;;;;;8.80;4.80;;;17.00;63.80;;;16.64;51.01;101059.94;4997319;28;20041;-94
2023/06/05 04:59:08;;;;;;;8.75;4.90;;;17.10;63.40;;;16.71;50.53;101053.44;4996049;28;20046;-92
2023/06/05 05:01:40;;;;;;;10.18;4.78;;;17.20;62.80;;;16.80;50.58;101056.56;4997072;28;20096;-94
2023/06/05 05:04:08;;;;;;;11.05;5.45;;;17.20;62.80;;;16.83;50.40;101056.09;4997558;28;20145;-94
2023/06/05 05:06:36;;;;;;;9.85;4.82;;;17.30;62.60;;;16.91;50.41;101060.28;4991392;28;20050;-94
2023/06/05 05:09:04;;;;;;;9.77;5.10;;;17.30;62.50;;;16.97;50.25;101054.75;4993217;28;20148;-92
2023/06/05 05:11:32;;;;;;;11.63;5.35;;;17.40;62.40;;;17.06;50.15;101065.16;4993075;28;21048;-94
2023/06/05 05:13:59;;;;;;;9.75;5.30;;;17.50;62.30;;;17.13;49.97;101052.34;4990974;28;20050;-92
2023/06/05 05:16:27;;;;;;;13.77;5.60;;;17.60;61.70;;;17.20;50.01;101050.34;4999751;28;20413;-93
2023/06/05 05:18:56;;;;;;;9.55;5.90;;;17.60;62.00;;;17.26;49.70;101052.06;4994595;28;20053;-85
2023/06/05 05:21:23;;;;;;;10.25;5.80;;;17.70;61.50;;;17.33;49.85;101049.25;5009993;28;20640;-86
2023/06/05 05:23:51;;;;;;;12.50;5.43;;;17.80;61.90;;;17.41;49.75;101055.06;4998307;28;20068;-85
2023/06/05 05:26:18;;;;;;;11.25;5.28;;;17.80;61.60;;;17.50;49.29;101053.59;5009450;28;20112;-84
2023/06/05 05:28:45;;;;;;;8.52;5.38;;;17.90;61.30;;;17.59;49.05;101054.03;4990838;28;20415;-84
2023/06/05 05:31:13;;;;;;;9.98;5.40;;;18.00;60.80;;;17.66;49.06;101061.97;4992203;28;20050;-83
2023/06/05 05:33:41;;;;;;;11.88;5.20;;;18.10;60.80;;;17.74;49.15;101054.31;5000669;28;20050;-87
2023/06/05 05:36:09;;;;;;;11.07;5.60;;;18.10;60.90;;;17.84;49.59;101055.56;5008691;28;20502;-86
2023/06/05 05:38:37;;;;;;;9.15;5.28;;;18.20;61.40;;;17.92;48.87;101055.16;4991172;28;20614;-86
2023/06/05 05:41:04;;;;;;;11.52;5.93;;;18.40;60.50;;;17.98;48.39;101056.88;4998175;28;20052;-89
2023/06/05 05:43:34;;;;;;;10.27;5.60;;;18.40;60.20;;;18.05;48.68;101059.38;4998362;28;20042;-87
2023/06/05 05:46:01;;;;;;;11.20;6.20;;;18.50;60.20;;;18.12;48.32;101060.88;4996226;28;20050;-85
2023/06/05 05:48:29;;;;;;;11.43;5.75;;;18.60;59.70;;;18.18;48.53;101054.47;4992782;28;20107;-86
2023/06/05 05:50:56;;;;;;;9.55;5.28;;;18.60;59.80;;;18.26;48.47;101059.47;4994862;28;20706;-84
2023/06/05 05:53:25;;;;;;;9.48;5.38;;;18.70;59.70;;;18.32;47.43;101051.44;5008324;28;20103;-85
2023/06/05 05:55:53;;;;;;;8.63;5.88;;;18.80;58.80;;;18.38;47.54;101053.94;5003880;28;20068;-85
2023/06/05 05:58:21;;;;;;;11.20;5.43;;;18.80;58.60;;;18.45;47.33;101051.09;5010024;28;20121;-84
2023/06/05 06:00:48;;;;;;;12.25;5.40;;;18.90;58.40;;;18.51;47.21;101041.97;5003764;28;20125;-84
2023/06/05 06:03:20;;;;;;;8.95;5.22;;;19.00;58.10;;;18.59;47.27;101043.41;4989623;28;20050;-87
2023/06/05 06:05:48;;;;;;;12.10;5.32;;;19.10;58.20;;;18.65;47.25;101045.13;5013062;28;20124;-86
2023/06/05 06:08:15;;;;;;;9.35;5.30;;;19.10;57.90;;;18.72;47.22;101052.00;4997219;28;20096;-84
2023/06/05 06:10:45;;;;;;;10.55;5.93;;;19.20;57.90;;;18.78;46.60;101058.28;5007460;28;20049;-85
2023/06/05 06:13:13;;;;;;;8.90;5.22;;;19.20;57.40;;;18.83;46.49;101060.25;4986306;28;20050;-86
2023/06/05 06:15:40;;;;;;;12.50;5.50;;;19.30;57.10;;;18.87;46.92;101054.09;5006191;28;20042;-85
2023/06/05 06:18:08;;;;;;;9.98;5.22;;;19.30;57.70;;;18.93;46.78;101053.06;5003156;28;20074;-86
2023/06/05 06:20:35;;;;;;;12.18;5.18;;;19.40;57.10;;;18.97;46.67;101054.19;4991816;28;20049;-88
2023/06/05 06:23:03;;;;;;;9.73;5.80;;;19.40;57.30;;;19.03;46.51;101055.06;4990889;28;20073;-85
2023/06/05 06:25:31;;;;;;;12.35;5.15;;;19.50;57.50;;;19.10;46.80;101057.59;5005999;28;20121;-87
2023/06/05 06:28:00;;;;;;;14.40;6.47;;;19.60;57.20;;;19.16;46.21;101045.75;4988498;28;20427;-88
2023/06/05 06:30:28;;;;;;;11.60;5.50;;;19.60;57.10;;;19.23;45.96;101049.09;5005683;28;20037;-88
2023/06/05 06:32:58;;;;;;;12.32;5.65;;;19.70;56.70;;;19.25;46.11;101050.47;4991466;28;20041;-89
2023/06/05 06:35:25;;;;;;;17.30;6.05;;;19.80;57.10;;;19.31;45.69;101056.72;5007698;28;20131;-89
2023/06/05 06:37:56;;;;;;;13.65;6.70;;;19.80;56.50;;;19.33;45.54;101054.59;4989019;28;20588;-88
2023/06/05 06:40:23;;;;;;;11.88;5.60;;;19.80;56.30;;;19.36;45.48;101054.09;5007078;28;20561;-89
2023/06/05 06:42:52;;;;;;;12.38;5.57;;;19.90;56.20;;;19.39;45.63;101064.41;4985053;28;20140;-91
2023/06/05 06:45:29;;;;;;;15.50;5.80;;;19.90;56.60;;;19.45;46.46;101060.66;4989367;28;20499;-89
2023/06/05 06:47:56;;;;;;;9.18;5.07;;;20.00;57.40;;;19.51;45.54;101056.13;5006470;28;20049;-91
2023/06/05 06:50:23;;;;;;;12.23;5.25;;;20.00;56.40;;;19.56;44.82;101061.56;4988227;28;20410;-91
2023/06/05 06:52:51;;;;;;;11.15;5.78;;;20.00;55.70;;;19.60;45.11;101053.81;5006855;28;20065;-89
2023/06/05 06:55:18;;;;;;;14.73;5.47;;;20.10;55.90;;;19.64;45.76;101055.75;5008850;28;20045;-89
2023/06/05 06:57:46;;;;;;;11.27;5.57;;;20.10;56.60;;;19.72;45.81;101065.28;4992415;28;20050;-86
2023/06/05 07:00:14;;;;;;;11.95;5.40;;;20.20;56.60;;;19.80;45.29;101072.91;4986190;28;20140;-85
2023/06/05 07:02:43;;;;;;;10.63;5.05;;;20.30;56.00;;;19.82;44.79;101059.97;4989125;28;20514;-85
2023/06/05 07:05:10;;;;;;;12.20;6.10;;;20.30;55.50;;;19.89;45.16;101057.03;5008456;28;20104;-90
2023/06/05 07:07:38;;;;;;;9.10;5.07;;;20.40;55.90;;;19.98;45.23;101050.06;4990954;28;20573;-86
2023/06/05 07:10:06;;;;;;;14.27;6.45;;;20.50;56.00;;;20.06;45.81;101058.53;4994810;28;20104;-86
2023/06/05 07:12:34;;;;;;;17.38;5.55;;;20.60;56.30;;;20.13;44.76;101062.91;5006902;28;20441;-84
2023/06/05 07:15:02;;;;;;;15.32;5.53;;;20.60;55.20;;;20.19;45.02;101062.66;4985713;28;20705;-85
2023/06/05 07:17:30;;;;;;;7.85;4.43;;;20.70;55.40;;;20.23;45.02;101061.06;5003831;28;20037;-84
2023/06/05 07:19:58;;;;;;;13.30;5.72;;;20.70;55.30;;;20.27;44.39;101069.50;5008758;28;20038;-85
2023/06/05 07:22:28;;;;;;;11.10;5.63;;;20.80;54.40;;;20.31;43.72;101068.72;5006476;28;20038;-86
2023/06/05 07:24:56;;;;;;;13.25;5.72;;;20.80;54.00;;;20.35;44.90;101060.88;4990594;28;20112;-85
2023/06/05 07:27:23;;;;;;;11.13;5.45;;;20.80;55.20;;;20.41;44.49;101062.53;5007317;28;20054;-86
2023/06/05 07:29:53;;;;;;;10.23;5.15;;;20.90;54.90;;;20.44;44.64;101070.13;5006836;28;20673;-86
2023/06/05 07:32:20;;;;;;;12.60;5.05;;;21.00;55.20;;;20.50;43.75;101055.59;4998604;28;20054;-88
2023/06/05 07:34:48;;;;;;;7.25;4.47;;;21.00;53.80;;;20.53;43.50;101052.34;5009609;28;20034;-86
2023/06/05 07:37:17;;;;;;;11.98;4.82;;;21.00;53.50;;;20.61;43.95;101055.63;5006550;28;20053;-87
2023/06/05 07:39:44;;;;;;;10.63;4.72;;;21.10;54.10;;;20.67;44.10;101051.88;5007152;28;20128;-87
2023/06/05 07:42:11;;;;;;;14.05;5.13;;;21.20;54.00;;;20.73;43.74;101039.94;5004540;28;20042;-87
2023/06/05 07:44:38;;;;;;;10.70;5.18;;;21.30;53.80;;;20.79;43.60;101050.56;4990704;28;20505;-85
2023/06/05 07:47:06;;;;;;;13.07;5.85;;;21.30;53.70;;;20.82;43.19;101050.03;5009987;28;20132;-85
2023/06/05 07:49:33;;;;;;;11.45;5.53;;;21.40;53.00;;;20.85;43.37;101048.69;5004433;28;20136;-86
2023/06/05 07:52:01;;;;;;;9.70;5.07;;;21.40;53.30;;;20.89;43.01;101055.22;5003476;28;20125;-88
2023/06/05 07:54:29;;;;;;;11.75;6.07;;;21.40;53.00;;;20.92;42.68;101043.81;5004210;28;20536;-87
2023/06/05 07:56:58;;;;;;;10.48;5.60;;;21.50;52.20;;;20.98;44.03;101048.19;5005819;28;20573;-87
2023/06/05 07:59:27;;;;;;;10.15;5.88;;;21.50;54.00;;;21.04;44.90;101046.31;5006927;28;20129;-88
2023/06/05 08:01:56;;;;;;;11.85;5.10;;;21.60;54.80;;;21.08;43.19;101047.41;5007874;28;20114;-87
2023/06/05 08:04:24;;;;;;;12.18;5.78;;;21.60;52.80;;;21.13;43.44;101052.88;5007242;28;20038;-88
2023/06/05 08:06:55;;;;;;;13.27;5.57;;;21.70;53.10;;;21.15;42.51;101053.41;4985746;28;20071;-87
2023/06/05 08:09:22;;;;;;;13.17;5.20;;;21.70;52.30;;;21.21;43.26;101056.94;4991017;28;20564;-88
2023/06/05 08:11:50;;;;;;;10.15;5.25;;;21.80;53.40;;;21.29;43.92;101057.22;5004703;28;20120;-87
2023/06/05 08:14:18;;;;;;;10.93;5.35;;;21.80;54.00;;;21.35;43.45;101063.50;5005067;28;20038;-87
2023/06/05 08:16:48;;;;;;;10.88;4.80;;;21.90;52.90;;;21.39;42.25;101058.38;5009107;28;20057;-85
2023/06/05 08:19:15;;;;;;;13.18;6.03;;;21.90;51.90;;;21.44;42.32;101061.09;5008283;28;20125;-85
2023/06/05 08:21:43;;;;;;;11.65;5.40;;;22.00;51.90;;;21.47;42.52;101046.97;4988079;28;20069;-87
2023/06/05 08:24:10;;;;;;;11.43;5.13;;;22.00;52.00;;;21.43;42.76;101049.44;5013898;28;20073;-87
2023/06/05 08:26:37;;;;;;;11.98;5.32;;;22.00;52.50;;;21.47;42.07;101039.66;5010754;28;20089;-87
2023/06/05 08:29:06;;;;;;;11.88;5.80;;;22.00;51.60;;;21.53;42.40;101046.72;5013341;28;20127;-86
2023/06/05 08:31:34;;;;;;;9.30;4.85;;;22.10;52.00;;;21.55;41.20;101041.00;4995848;28;20095;-88
2023/06/05 08:34:01;;;;;;;9.70;5.68;;;22.10;50.70;;;21.54;40.69;101033.97;4994983;28;20058;-89
2023/06/05 08:36:32;;;;;;;8.90;4.82;;;22.10;50.00;;;21.52;41.25;101045.09;4993737;28;20161;-88
2023/06/05 08:39:01;;;;;;;13.50;4.70;;;22.10;50.70;;;21.54;41.21;101042.91;5008283;28;20080;-88
2023/06/05 08:41:31;;;;;;;15.93;6.15;;;22.10;50.40;;;21.50;41.07;101044.53;4994978;28;20038;-89
2023/06/05 08:43:59;;;;;;;12.50;6.13;;;22.10;50.20;;;21.51;42.84;101039.91;5014996;28;20092;-87
2023/06/05 08:46:30;;;;;;;10.57;5.50;;;22.10;52.40;;;21.59;42.03;101048.34;4991109;28;20157;-86
2023/06/05 08:48:58;;;;;;;9.63;5.13;;;22.10;51.40;;;21.68;43.42;101034.25;5015088;28;20053;-88
2023/06/05 08:51:27;;;;;;;9.02;5.13;;;22.20;53.10;;;21.74;43.27;101041.28;4994712;28;20364;-88
2023/06/05 08:54:03;;;;;;;10.35;5.32;;;22.30;52.90;;;21.78;42.50;101031.53;4994479;28;20069;-87
2023/06/05 08:56:31;;;;;;;11.23;5.80;;;22.30;51.70;;;21.83;43.10;101032.34;5011767;28;20033;-87
2023/06/05 08:59:00;;;;;;;10.63;5.07;;;22.40;52.50;;;21.81;40.57;101034.50;4993711;28;20046;-88
2023/06/05 09:01:32;;;;;;;12.68;5.53;;;22.40;49.50;;;21.78;39.98;101035.03;4993451;28;20178;-86
2023/06/05 09:03:59;;;;;;;14.90;5.57;;;22.30;49.10;;;21.78;40.09;101028.81;4993008;28;20140;-86
2023/06/05 09:06:27;;;;;;;15.70;5.20;;;22.30;48.90;;;21.77;42.48;101029.91;5039425;22;20049;-77
2023/06/05 09:08:55;;;;;;;9.32;4.85;;;22.30;51.50;;;21.79;41.31;101031.25;5032029;28;20128;-78
2023/06/05 09:11:29;;;;;;;9.90;5.05;;;22.40;50.10;;;21.80;40.65;101032.06;5026617;28;20120;-88
2023/06/05 09:13:59;;;;;;;13.73;4.75;;;22.40;49.40;;;21.78;39.75;101021.47;5023249;28;20542;-77
2023/06/05 09:16:37;;;;;;;9.15;5.03;;;22.40;48.40;;;21.74;39.97;101020.38;5011456;28;20643;-79
2023/06/05 09:19:05;;;;;;;11.77;5.35;;;22.30;48.60;;;21.69;39.40;101017.66;5013393;28;20062;-79
2023/06/05 09:21:33;;;;;;;8.52;4.15;;;22.30;48.40;;;21.68;41.53;101018.75;5012200;28;20148;-79
2023/06/05 09:24:17;;;;;;;7.80;4.72;;;22.30;50.50;;;21.72;39.84;101017.13;5014388;28;20041;-79
2023/06/05 09:26:50;;;;;;;10.23;4.30;;;22.30;48.70;;;21.73;40.05;101015.22;5011669;28;20644;-78
2023/06/05 09:29:26;;;;;;;9.98;3.83;;;22.30;49.00;;;21.80;42.46;101011.13;5010101;28;20105;-78
2023/06/05 09:31:57;;;;;;;11.32;4.72;;;22.40;51.90;;;21.83;40.33;101007.88;5008997;28;20057;-79
2023/06/05 09:34:27;;;;;;;11.65;4.93;;;22.40;49.30;;;21.87;40.76;101005.44;5020339;28;20037;-77
2023/06/05 09:36:55;;;;;;;9.95;4.88;;;22.40;49.80;;;21.85;40.33;100999.47;5002035;28;20546;-79
2023/06/05 09:39:24;;;;;;;10.05;4.75;;;22.40;49.00;;;21.89;40.63;101008.69;5006852;28;20049;-79
2023/06/05 09:41:52;;;;;;;11.00;4.90;;;22.50;49.60;;;21.88;40.41;101006.25;5000313;28;20042;-78
2023/06/05 09:44:20;;;;;;;11.07;4.85;;;22.40;49.10;;;21.89;41.48;100997.81;5009941;28;20050;-79
2023/06/05 09:46:57;;;;;;;10.60;4.13;;;22.50;50.70;;;21.95;40.16;101007.59;5005836;28;20113;-79
2023/06/05 09:49:30;;;;;;;11.15;4.88;;;22.50;49.10;;;21.90;39.23;101004.88;5006890;28;20050;-78
2023/06/05 09:51:59;;;;;;;8.90;4.15;;;22.50;47.90;;;21.85;39.11;101007.59;5005559;28;20050;-77
2023/06/05 09:54:31;;;;;;;9.85;4.35;;;22.50;47.90;;;21.86;38.87;101003.78;5008934;28;20119;-77
2023/06/05 09:57:02;;;;;;;11.30;4.20;;;22.40;47.30;;;21.86;38.44;101003.78;5009561;28;20506;-79
2023/06/05 09:59:32;;;;;;;11.68;4.90;;;22.40;46.60;;;21.86;38.21;101003.78;5011179;28;20046;-79
2023/06/05 10:02:04;;;;;;;8.40;4.10;;;22.40;46.30;;;21.87;38.01;100986.44;5010194;28;20049;-78
2023/06/05 10:04:38;;;;;;;11.85;4.35;;;22.40;46.10;;;21.86;39.18;100992.94;5011554;28;20042;-77
2023/06/05 10:07:06;;;;;;;5.72;3.70;;;22.40;47.50;;;21.92;39.01;100989.16;5011065;28;20046;-78
2023/06/05 10:09:33;;;;;;;9.90;3.80;;;22.50;47.90;;;22.01;39.48;100990.22;5007633;28;20104;-78
2023/06/05 10:12:02;;;;;;;6.78;4.10;;;22.60;47.70;;;22.01;38.74;100987.50;5008320;28;20048;-78
2023/06/05 10:14:29;;;;;;;11.52;4.43;;;22.60;46.90;;;22.01;38.25;100989.38;5006190;28;20081;-78
2023/06/05 10:16:58;;;;;;;12.55;4.53;;;22.60;46.30;;;21.99;37.11;100981.50;4991863;28;20487;-77